sensor_id;sensor_type;location;lat;lon;timestamp;P1;durP1;ratioP1;P2;durP2;ratioP2
53339;SDS011;46212;50.258;19.062;2024-02-14T00:00:06;74.35;;;33.20;;
53339;SDS011;46212;50.258;19.062;2024-02-14T00:02:35;92.97;;;37.97;;
53339;SDS011;46212;50.258;19.062;2024-02-14T00:05:02;201.30;;;70.18;;
53339;SDS011;46212;50.258;19.062;2024-02-14T00:07:28;147.67;;;52.17;;
53339;SDS011;46212;50.258;19.062;2024-02-14T00:09:53;67.15;;;28.08;;
53339;SDS011;46212;50.258;19.062;2024-02-14T00:12:19;56.10;;;27.00;;
53339;SDS011;46212;50.258;19.062;2024-02-14T00:14:44;52.10;;;24.13;;
53339;SDS011;46212;50.258;19.062;2024-02-14T00:17:10;80.72;;;35.95;;
53339;SDS011;46212;50.258;19.062;2024-02-14T00:19:35;188.05;;;74.45;;
53339;SDS011;46212;50.258;19.062;2024-02-14T00:22:01;121.80;;;53.10;;
53339;SDS011;46212;50.258;19.062;2024-02-14T00:24:26;64.15;;;32.13;;
53339;SDS011;46212;50.258;19.062;2024-02-14T00:26:54;50.78;;;23.83;;
53339;SDS011;46212;50.258;19.062;2024-02-14T00:29:20;52.33;;;28.65;;
53339;SDS011;46212;50.258;19.062;2024-02-14T00:31:46;46.88;;;24.90;;
53339;SDS011;46212;50.258;19.062;2024-02-14T00:34:11;55.30;;;29.48;;
53339;SDS011;46212;50.258;19.062;2024-02-14T00:36:37;60.10;;;28.85;;
53339;SDS011;46212;50.258;19.062;2024-02-14T00:39:03;56.08;;;24.77;;
53339;SDS011;46212;50.258;19.062;2024-02-14T00:41:28;44.20;;;23.05;;
53339;SDS011;46212;50.258;19.062;2024-02-14T00:43:57;51.60;;;25.67;;
53339;SDS011;46212;50.258;19.062;2024-02-14T00:46:23;45.03;;;21.73;;
53339;SDS011;46212;50.258;19.062;2024-02-14T00:48:48;57.65;;;24.48;;
53339;SDS011;46212;50.258;19.062;2024-02-14T00:51:14;42.07;;;21.57;;
53339;SDS011;46212;50.258;19.062;2024-02-14T00:53:39;45.97;;;22.00;;
53339;SDS011;46212;50.258;19.062;2024-02-14T00:56:05;50.47;;;22.75;;
53339;SDS011;46212;50.258;19.062;2024-02-14T00:58:30;46.15;;;22.45;;
53339;SDS011;46212;50.258;19.062;2024-02-14T01:00:56;47.77;;;22.57;;
53339;SDS011;46212;50.258;19.062;2024-02-14T01:03:22;45.67;;;23.35;;
53339;SDS011;46212;50.258;19.062;2024-02-14T01:05:48;44.25;;;23.70;;
53339;SDS011;46212;50.258;19.062;2024-02-14T01:08:13;45.17;;;23.63;;
53339;SDS011;46212;50.258;19.062;2024-02-14T01:10:39;47.92;;;22.30;;
53339;SDS011;46212;50.258;19.062;2024-02-14T01:13:05;48.05;;;23.08;;
53339;SDS011;46212;50.258;19.062;2024-02-14T01:15:31;48.22;;;25.02;;
53339;SDS011;46212;50.258;19.062;2024-02-14T01:17:56;53.35;;;24.25;;
53339;SDS011;46212;50.258;19.062;2024-02-14T01:20:22;52.08;;;25.15;;
53339;SDS011;46212;50.258;19.062;2024-02-14T01:22:48;62.45;;;24.08;;
53339;SDS011;46212;50.258;19.062;2024-02-14T01:25:13;62.97;;;26.10;;
53339;SDS011;46212;50.258;19.062;2024-02-14T01:27:39;50.07;;;24.77;;
53339;SDS011;46212;50.258;19.062;2024-02-14T01:30:06;53.53;;;25.42;;
53339;SDS011;46212;50.258;19.062;2024-02-14T01:32:32;52.08;;;26.10;;
53339;SDS011;46212;50.258;19.062;2024-02-14T01:34:57;59.83;;;23.70;;
53339;SDS011;46212;50.258;19.062;2024-02-14T01:37:22;52.03;;;23.25;;
53339;SDS011;46212;50.258;19.062;2024-02-14T01:39:48;48.03;;;21.88;;
53339;SDS011;46212;50.258;19.062;2024-02-14T01:42:13;50.17;;;25.80;;
53339;SDS011;46212;50.258;19.062;2024-02-14T01:44:39;50.25;;;23.67;;
53339;SDS011;46212;50.258;19.062;2024-02-14T01:47:05;48.83;;;19.35;;
53339;SDS011;46212;50.258;19.062;2024-02-14T01:49:31;46.33;;;24.02;;
53339;SDS011;46212;50.258;19.062;2024-02-14T01:51:59;46.30;;;22.55;;
53339;SDS011;46212;50.258;19.062;2024-02-14T01:54:27;46.05;;;21.70;;
53339;SDS011;46212;50.258;19.062;2024-02-14T01:56:53;37.07;;;21.67;;
53339;SDS011;46212;50.258;19.062;2024-02-14T01:59:21;44.28;;;20.92;;
53339;SDS011;46212;50.258;19.062;2024-02-14T02:01:48;45.38;;;20.33;;
53339;SDS011;46212;50.258;19.062;2024-02-14T02:04:13;40.78;;;19.95;;
53339;SDS011;46212;50.258;19.062;2024-02-14T02:06:38;42.53;;;21.23;;
53339;SDS011;46212;50.258;19.062;2024-02-14T02:09:06;43.90;;;21.27;;
53339;SDS011;46212;50.258;19.062;2024-02-14T02:11:42;48.93;;;22.37;;
53339;SDS011;46212;50.258;19.062;2024-02-14T02:14:19;49.63;;;22.38;;
53339;SDS011;46212;50.258;19.062;2024-02-14T02:16:45;48.38;;;23.88;;
53339;SDS011;46212;50.258;19.062;2024-02-14T02:19:11;39.03;;;22.70;;
53339;SDS011;46212;50.258;19.062;2024-02-14T02:21:36;49.28;;;22.73;;
53339;SDS011;46212;50.258;19.062;2024-02-14T02:24:02;39.55;;;20.10;;
53339;SDS011;46212;50.258;19.062;2024-02-14T02:26:28;50.15;;;23.27;;
53339;SDS011;46212;50.258;19.062;2024-02-14T02:28:53;50.70;;;21.90;;
53339;SDS011;46212;50.258;19.062;2024-02-14T02:31:19;38.97;;;21.17;;
53339;SDS011;46212;50.258;19.062;2024-02-14T02:33:45;35.40;;;18.88;;
53339;SDS011;46212;50.258;19.062;2024-02-14T02:36:12;42.15;;;21.70;;
53339;SDS011;46212;50.258;19.062;2024-02-14T02:38:37;39.67;;;20.05;;
53339;SDS011;46212;50.258;19.062;2024-02-14T02:41:03;42.75;;;20.05;;
53339;SDS011;46212;50.258;19.062;2024-02-14T02:43:31;40.45;;;20.23;;
53339;SDS011;46212;50.258;19.062;2024-02-14T02:45:58;38.85;;;20.10;;
53339;SDS011;46212;50.258;19.062;2024-02-14T02:48:23;36.70;;;19.60;;
53339;SDS011;46212;50.258;19.062;2024-02-14T02:50:49;37.75;;;18.55;;
53339;SDS011;46212;50.258;19.062;2024-02-14T02:53:15;44.42;;;18.88;;
53339;SDS011;46212;50.258;19.062;2024-02-14T02:55:41;39.03;;;18.88;;
53339;SDS011;46212;50.258;19.062;2024-02-14T02:58:06;39.95;;;19.17;;
53339;SDS011;46212;50.258;19.062;2024-02-14T03:00:32;41.07;;;20.53;;
53339;SDS011;46212;50.258;19.062;2024-02-14T03:02:58;37.28;;;19.27;;
53339;SDS011;46212;50.258;19.062;2024-02-14T03:05:23;37.47;;;17.90;;
53339;SDS011;46212;50.258;19.062;2024-02-14T03:07:49;34.93;;;19.47;;
53339;SDS011;46212;50.258;19.062;2024-02-14T03:10:16;41.85;;;17.90;;
53339;SDS011;46212;50.258;19.062;2024-02-14T03:12:49;39.53;;;20.23;;
53339;SDS011;46212;50.258;19.062;2024-02-14T03:15:14;41.40;;;19.42;;
53339;SDS011;46212;50.258;19.062;2024-02-14T03:17:40;36.10;;;18.92;;
53339;SDS011;46212;50.258;19.062;2024-02-14T03:22:39;39.60;;;19.60;;
53339;SDS011;46212;50.258;19.062;2024-02-14T03:25:13;43.70;;;21.27;;
53339;SDS011;46212;50.258;19.062;2024-02-14T03:27:41;40.75;;;18.92;;
53339;SDS011;46212;50.258;19.062;2024-02-14T03:30:07;45.30;;;22.30;;
53339;SDS011;46212;50.258;19.062;2024-02-14T03:32:33;41.53;;;20.27;;
53339;SDS011;46212;50.258;19.062;2024-02-14T03:34:58;40.75;;;18.60;;
53339;SDS011;46212;50.258;19.062;2024-02-14T03:37:25;42.72;;;21.10;;
53339;SDS011;46212;50.258;19.062;2024-02-14T03:39:51;40.57;;;19.43;;
53339;SDS011;46212;50.258;19.062;2024-02-14T03:42:17;40.97;;;19.25;;
53339;SDS011;46212;50.258;19.062;2024-02-14T03:44:43;51.08;;;20.85;;
53339;SDS011;46212;50.258;19.062;2024-02-14T03:47:08;40.50;;;19.27;;
53339;SDS011;46212;50.258;19.062;2024-02-14T03:49:34;45.38;;;23.70;;
53339;SDS011;46212;50.258;19.062;2024-02-14T03:52:00;42.75;;;20.63;;
53339;SDS011;46212;50.258;19.062;2024-02-14T03:54:26;39.25;;;20.85;;
53339;SDS011;46212;50.258;19.062;2024-02-14T03:56:52;41.13;;;21.77;;
53339;SDS011;46212;50.258;19.062;2024-02-14T03:59:17;42.92;;;22.45;;
53339;SDS011;46212;50.258;19.062;2024-02-14T04:01:49;45.60;;;21.58;;
53339;SDS011;46212;50.258;19.062;2024-02-14T04:04:15;46.15;;;22.08;;
53339;SDS011;46212;50.258;19.062;2024-02-14T04:06:41;68.15;;;31.30;;
53339;SDS011;46212;50.258;19.062;2024-02-14T04:09:07;97.50;;;42.50;;
53339;SDS011;46212;50.258;19.062;2024-02-14T04:11:33;58.03;;;29.15;;
53339;SDS011;46212;50.258;19.062;2024-02-14T04:13:58;59.30;;;28.30;;
53339;SDS011;46212;50.258;19.062;2024-02-14T04:16:23;63.57;;;31.97;;
53339;SDS011;46212;50.258;19.062;2024-02-14T04:18:49;52.53;;;26.58;;
53339;SDS011;46212;50.258;19.062;2024-02-14T04:21:14;46.90;;;22.25;;
53339;SDS011;46212;50.258;19.062;2024-02-14T04:23:40;52.22;;;22.05;;
53339;SDS011;46212;50.258;19.062;2024-02-14T04:26:05;43.88;;;22.40;;
53339;SDS011;46212;50.258;19.062;2024-02-14T04:28:31;48.65;;;22.60;;
53339;SDS011;46212;50.258;19.062;2024-02-14T04:30:56;48.47;;;21.73;;
53339;SDS011;46212;50.258;19.062;2024-02-14T04:33:22;46.53;;;22.87;;
53339;SDS011;46212;50.258;19.062;2024-02-14T04:35:47;43.30;;;23.17;;
53339;SDS011;46212;50.258;19.062;2024-02-14T04:38:13;46.97;;;22.55;;
53339;SDS011;46212;50.258;19.062;2024-02-14T04:40:38;54.75;;;23.23;;
53339;SDS011;46212;50.258;19.062;2024-02-14T04:43:04;47.47;;;23.58;;
53339;SDS011;46212;50.258;19.062;2024-02-14T04:45:30;44.97;;;22.38;;
53339;SDS011;46212;50.258;19.062;2024-02-14T04:47:55;46.42;;;23.40;;
53339;SDS011;46212;50.258;19.062;2024-02-14T04:50:21;49.67;;;21.92;;
53339;SDS011;46212;50.258;19.062;2024-02-14T04:52:46;48.42;;;22.67;;
53339;SDS011;46212;50.258;19.062;2024-02-14T04:55:12;39.65;;;21.25;;
53339;SDS011;46212;50.258;19.062;2024-02-14T04:57:38;46.10;;;22.45;;
53339;SDS011;46212;50.258;19.062;2024-02-14T05:00:04;41.47;;;21.70;;
53339;SDS011;46212;50.258;19.062;2024-02-14T05:02:30;43.17;;;22.42;;
53339;SDS011;46212;50.258;19.062;2024-02-14T05:04:56;49.25;;;22.63;;
53339;SDS011;46212;50.258;19.062;2024-02-14T05:07:21;52.83;;;24.35;;
53339;SDS011;46212;50.258;19.062;2024-02-14T05:09:47;49.60;;;24.70;;
53339;SDS011;46212;50.258;19.062;2024-02-14T05:12:15;40.55;;;21.80;;
53339;SDS011;46212;50.258;19.062;2024-02-14T05:14:40;42.72;;;22.77;;
53339;SDS011;46212;50.258;19.062;2024-02-14T05:17:07;47.00;;;22.38;;
53339;SDS011;46212;50.258;19.062;2024-02-14T05:19:33;48.08;;;21.42;;
53339;SDS011;46212;50.258;19.062;2024-02-14T05:21:58;44.55;;;23.17;;
53339;SDS011;46212;50.258;19.062;2024-02-14T05:24:24;37.80;;;18.67;;
53339;SDS011;46212;50.258;19.062;2024-02-14T05:26:52;42.35;;;21.40;;
53339;SDS011;46212;50.258;19.062;2024-02-14T05:29:18;36.85;;;18.88;;
53339;SDS011;46212;50.258;19.062;2024-02-14T05:31:45;40.63;;;20.63;;
53339;SDS011;46212;50.258;19.062;2024-02-14T05:34:13;38.50;;;18.48;;
53339;SDS011;46212;50.258;19.062;2024-02-14T05:36:39;50.85;;;21.95;;
53339;SDS011;46212;50.258;19.062;2024-02-14T05:39:04;42.47;;;23.80;;
53339;SDS011;46212;50.258;19.062;2024-02-14T05:41:33;46.75;;;22.67;;
53339;SDS011;46212;50.258;19.062;2024-02-14T05:43:59;46.08;;;20.48;;
53339;SDS011;46212;50.258;19.062;2024-02-14T05:46:25;43.80;;;22.42;;
53339;SDS011;46212;50.258;19.062;2024-02-14T05:48:50;51.30;;;23.02;;
53339;SDS011;46212;50.258;19.062;2024-02-14T05:53:43;41.38;;;19.25;;
53339;SDS011;46212;50.258;19.062;2024-02-14T05:56:08;39.78;;;19.77;;
53339;SDS011;46212;50.258;19.062;2024-02-14T05:58:33;42.10;;;20.50;;
53339;SDS011;46212;50.258;19.062;2024-02-14T06:00:59;38.80;;;20.38;;
53339;SDS011;46212;50.258;19.062;2024-02-14T06:03:24;41.97;;;21.07;;
53339;SDS011;46212;50.258;19.062;2024-02-14T06:05:50;53.35;;;23.65;;
53339;SDS011;46212;50.258;19.062;2024-02-14T06:08:15;49.05;;;22.83;;
53339;SDS011;46212;50.258;19.062;2024-02-14T06:10:41;44.28;;;22.42;;
53339;SDS011;46212;50.258;19.062;2024-02-14T06:13:06;59.72;;;24.63;;
53339;SDS011;46212;50.258;19.062;2024-02-14T06:15:31;50.60;;;21.17;;
53339;SDS011;46212;50.258;19.062;2024-02-14T06:17:57;52.63;;;22.98;;
53339;SDS011;46212;50.258;19.062;2024-02-14T06:20:22;52.85;;;25.13;;
53339;SDS011;46212;50.258;19.062;2024-02-14T06:22:48;52.50;;;23.52;;
53339;SDS011;46212;50.258;19.062;2024-02-14T06:25:13;48.95;;;26.15;;
53339;SDS011;46212;50.258;19.062;2024-02-14T06:27:39;60.60;;;26.25;;
53339;SDS011;46212;50.258;19.062;2024-02-14T06:30:05;58.70;;;26.92;;
53339;SDS011;46212;50.258;19.062;2024-02-14T06:32:30;56.10;;;27.80;;
53339;SDS011;46212;50.258;19.062;2024-02-14T06:34:56;55.65;;;28.33;;
53339;SDS011;46212;50.258;19.062;2024-02-14T06:37:21;60.80;;;29.85;;
53339;SDS011;46212;50.258;19.062;2024-02-14T06:39:47;58.10;;;28.40;;
53339;SDS011;46212;50.258;19.062;2024-02-14T06:42:13;63.88;;;26.48;;
53339;SDS011;46212;50.258;19.062;2024-02-14T06:44:40;53.70;;;27.40;;
53339;SDS011;46212;50.258;19.062;2024-02-14T06:47:05;57.20;;;26.85;;
53339;SDS011;46212;50.258;19.062;2024-02-14T06:49:31;56.85;;;29.52;;
53339;SDS011;46212;50.258;19.062;2024-02-14T06:51:56;65.68;;;28.92;;
53339;SDS011;46212;50.258;19.062;2024-02-14T06:54:22;67.07;;;31.67;;
53339;SDS011;46212;50.258;19.062;2024-02-14T06:56:47;61.70;;;31.13;;
53339;SDS011;46212;50.258;19.062;2024-02-14T06:59:13;64.20;;;31.38;;
53339;SDS011;46212;50.258;19.062;2024-02-14T07:01:38;59.47;;;30.00;;
53339;SDS011;46212;50.258;19.062;2024-02-14T07:04:04;79.35;;;34.05;;
53339;SDS011;46212;50.258;19.062;2024-02-14T07:06:30;65.32;;;33.28;;
53339;SDS011;46212;50.258;19.062;2024-02-14T07:08:55;69.32;;;33.13;;
53339;SDS011;46212;50.258;19.062;2024-02-14T07:11:21;64.57;;;31.35;;
53339;SDS011;46212;50.258;19.062;2024-02-14T07:13:46;71.55;;;33.63;;
53339;SDS011;46212;50.258;19.062;2024-02-14T07:16:11;66.57;;;32.03;;
53339;SDS011;46212;50.258;19.062;2024-02-14T07:18:37;68.00;;;31.42;;
53339;SDS011;46212;50.258;19.062;2024-02-14T07:21:02;72.90;;;36.70;;
53339;SDS011;46212;50.258;19.062;2024-02-14T07:23:31;83.85;;;35.28;;
53339;SDS011;46212;50.258;19.062;2024-02-14T07:25:57;78.78;;;34.50;;
53339;SDS011;46212;50.258;19.062;2024-02-14T07:28:23;77.90;;;35.53;;
53339;SDS011;46212;50.258;19.062;2024-02-14T07:30:48;73.38;;;36.75;;
53339;SDS011;46212;50.258;19.062;2024-02-14T07:33:13;81.38;;;38.00;;
53339;SDS011;46212;50.258;19.062;2024-02-14T07:35:40;73.25;;;36.35;;
53339;SDS011;46212;50.258;19.062;2024-02-14T07:38:06;75.35;;;35.00;;
53339;SDS011;46212;50.258;19.062;2024-02-14T07:40:33;90.53;;;38.65;;
53339;SDS011;46212;50.258;19.062;2024-02-14T07:42:58;72.90;;;38.10;;
53339;SDS011;46212;50.258;19.062;2024-02-14T07:45:24;66.00;;;32.55;;
53339;SDS011;46212;50.258;19.062;2024-02-14T07:47:50;64.75;;;34.17;;
53339;SDS011;46212;50.258;19.062;2024-02-14T07:50:15;66.00;;;31.55;;
53339;SDS011;46212;50.258;19.062;2024-02-14T07:52:42;44.27;;;23.17;;
53339;SDS011;46212;50.258;19.062;2024-02-14T07:55:09;133.63;;;60.47;;
53339;SDS011;46212;50.258;19.062;2024-02-14T07:57:37;72.95;;;36.75;;
53339;SDS011;46212;50.258;19.062;2024-02-14T08:00:09;70.43;;;34.63;;
53339;SDS011;46212;50.258;19.062;2024-02-14T08:02:35;72.67;;;32.50;;
53339;SDS011;46212;50.258;19.062;2024-02-14T08:05:03;61.45;;;30.40;;
53339;SDS011;46212;50.258;19.062;2024-02-14T08:07:33;52.33;;;27.05;;
53339;SDS011;46212;50.258;19.062;2024-02-14T08:09:59;44.00;;;22.07;;
53339;SDS011;46212;50.258;19.062;2024-02-14T08:12:24;36.80;;;16.97;;
53339;SDS011;46212;50.258;19.062;2024-02-14T08:14:50;35.93;;;18.63;;
53339;SDS011;46212;50.258;19.062;2024-02-14T08:17:16;43.07;;;18.87;;
53339;SDS011;46212;50.258;19.062;2024-02-14T08:19:42;30.10;;;16.17;;
53339;SDS011;46212;50.258;19.062;2024-02-14T08:22:08;30.25;;;16.67;;
53339;SDS011;46212;50.258;19.062;2024-02-14T08:24:34;28.87;;;16.10;;
53339;SDS011;46212;50.258;19.062;2024-02-14T08:26:59;28.77;;;12.27;;
53339;SDS011;46212;50.258;19.062;2024-02-14T08:29:24;22.33;;;12.82;;
53339;SDS011;46212;50.258;19.062;2024-02-14T08:31:50;24.70;;;11.90;;
53339;SDS011;46212;50.258;19.062;2024-02-14T08:34:15;24.52;;;12.45;;
53339;SDS011;46212;50.258;19.062;2024-02-14T08:36:41;22.08;;;11.60;;
53339;SDS011;46212;50.258;19.062;2024-02-14T08:39:07;19.33;;;9.85;;
53339;SDS011;46212;50.258;19.062;2024-02-14T08:41:34;18.88;;;10.88;;
53339;SDS011;46212;50.258;19.062;2024-02-14T08:44:03;23.10;;;11.25;;
53339;SDS011;46212;50.258;19.062;2024-02-14T08:46:30;27.45;;;12.00;;
53339;SDS011;46212;50.258;19.062;2024-02-14T08:48:55;21.33;;;9.50;;
53339;SDS011;46212;50.258;19.062;2024-02-14T08:51:21;32.07;;;14.60;;
53339;SDS011;46212;50.258;19.062;2024-02-14T08:53:47;44.83;;;23.75;;
53339;SDS011;46212;50.258;19.062;2024-02-14T08:56:13;15.60;;;9.02;;
53339;SDS011;46212;50.258;19.062;2024-02-14T08:58:38;19.40;;;11.07;;
53339;SDS011;46212;50.258;19.062;2024-02-14T09:01:04;12.90;;;7.63;;
53339;SDS011;46212;50.258;19.062;2024-02-14T09:03:30;16.00;;;8.40;;
53339;SDS011;46212;50.258;19.062;2024-02-14T09:05:56;13.88;;;7.90;;
53339;SDS011;46212;50.258;19.062;2024-02-14T09:08:22;18.10;;;7.70;;
53339;SDS011;46212;50.258;19.062;2024-02-14T09:10:49;16.10;;;7.40;;
53339;SDS011;46212;50.258;19.062;2024-02-14T09:13:15;19.87;;;7.83;;
53339;SDS011;46212;50.258;19.062;2024-02-14T09:15:40;15.67;;;7.57;;
53339;SDS011;46212;50.258;19.062;2024-02-14T09:18:05;11.43;;;6.60;;
53339;SDS011;46212;50.258;19.062;2024-02-14T09:20:31;15.13;;;8.57;;
53339;SDS011;46212;50.258;19.062;2024-02-14T09:22:56;14.10;;;6.80;;
53339;SDS011;46212;50.258;19.062;2024-02-14T09:25:23;13.07;;;7.47;;
53339;SDS011;46212;50.258;19.062;2024-02-14T09:27:50;14.40;;;7.97;;
53339;SDS011;46212;50.258;19.062;2024-02-14T09:30:15;18.17;;;7.50;;
53339;SDS011;46212;50.258;19.062;2024-02-14T09:32:42;23.73;;;8.80;;
53339;SDS011;46212;50.258;19.062;2024-02-14T09:35:09;18.67;;;7.85;;
53339;SDS011;46212;50.258;19.062;2024-02-14T09:37:35;19.52;;;9.82;;
53339;SDS011;46212;50.258;19.062;2024-02-14T09:40:03;17.67;;;8.02;;
53339;SDS011;46212;50.258;19.062;2024-02-14T09:42:39;15.95;;;7.70;;
53339;SDS011;46212;50.258;19.062;2024-02-14T09:45:25;15.95;;;8.23;;
53339;SDS011;46212;50.258;19.062;2024-02-14T09:47:51;13.43;;;6.32;;
53339;SDS011;46212;50.258;19.062;2024-02-14T09:50:17;16.20;;;6.07;;
53339;SDS011;46212;50.258;19.062;2024-02-14T09:52:45;15.27;;;7.10;;
53339;SDS011;46212;50.258;19.062;2024-02-14T09:55:13;11.65;;;6.95;;
53339;SDS011;46212;50.258;19.062;2024-02-14T09:57:40;15.23;;;7.25;;
53339;SDS011;46212;50.258;19.062;2024-02-14T10:00:07;12.70;;;6.63;;
53339;SDS011;46212;50.258;19.062;2024-02-14T10:02:35;12.50;;;5.70;;
53339;SDS011;46212;50.258;19.062;2024-02-14T10:05:00;10.57;;;6.20;;
53339;SDS011;46212;50.258;19.062;2024-02-14T10:07:26;14.00;;;7.22;;
53339;SDS011;46212;50.258;19.062;2024-02-14T10:09:52;11.63;;;7.30;;
53339;SDS011;46212;50.258;19.062;2024-02-14T10:12:18;12.20;;;7.93;;
53339;SDS011;46212;50.258;19.062;2024-02-14T10:14:44;24.87;;;12.13;;
53339;SDS011;46212;50.258;19.062;2024-02-14T10:17:16;19.60;;;10.90;;
53339;SDS011;46212;50.258;19.062;2024-02-14T10:19:43;12.57;;;6.78;;
53339;SDS011;46212;50.258;19.062;2024-02-14T10:22:08;14.83;;;6.70;;
53339;SDS011;46212;50.258;19.062;2024-02-14T10:24:34;14.37;;;7.07;;
53339;SDS011;46212;50.258;19.062;2024-02-14T10:27:00;14.32;;;7.00;;
53339;SDS011;46212;50.258;19.062;2024-02-14T10:29:26;13.83;;;7.80;;
53339;SDS011;46212;50.258;19.062;2024-02-14T10:31:54;14.60;;;7.77;;
53339;SDS011;46212;50.258;19.062;2024-02-14T10:34:19;17.05;;;8.52;;
53339;SDS011;46212;50.258;19.062;2024-02-14T10:36:49;9.88;;;6.25;;
53339;SDS011;46212;50.258;19.062;2024-02-14T10:39:18;12.23;;;6.30;;
53339;SDS011;46212;50.258;19.062;2024-02-14T10:41:44;12.53;;;6.07;;
53339;SDS011;46212;50.258;19.062;2024-02-14T10:44:09;13.95;;;5.07;;
53339;SDS011;46212;50.258;19.062;2024-02-14T10:46:36;9.30;;;4.68;;
53339;SDS011;46212;50.258;19.062;2024-02-14T10:51:33;10.38;;;5.40;;
53339;SDS011;46212;50.258;19.062;2024-02-14T10:54:01;12.07;;;5.30;;
53339;SDS011;46212;50.258;19.062;2024-02-14T10:56:31;9.20;;;4.03;;
53339;SDS011;46212;50.258;19.062;2024-02-14T10:58:57;11.45;;;4.30;;
53339;SDS011;46212;50.258;19.062;2024-02-14T11:01:28;10.27;;;4.38;;
53339;SDS011;46212;50.258;19.062;2024-02-14T11:03:59;7.40;;;4.70;;
53339;SDS011;46212;50.258;19.062;2024-02-14T11:11:24;9.45;;;3.63;;
53339;SDS011;46212;50.258;19.062;2024-02-14T11:13:53;10.77;;;4.10;;
53339;SDS011;46212;50.258;19.062;2024-02-14T11:16:22;8.60;;;4.50;;
53339;SDS011;46212;50.258;19.062;2024-02-14T11:18:53;25.00;;;13.60;;
53339;SDS011;46212;50.258;19.062;2024-02-14T11:21:19;69.07;;;39.58;;
53339;SDS011;46212;50.258;19.062;2024-02-14T11:23:54;8.27;;;3.23;;
53339;SDS011;46212;50.258;19.062;2024-02-14T11:26:20;9.13;;;4.75;;
53339;SDS011;46212;50.258;19.062;2024-02-14T11:28:48;8.43;;;3.33;;
53339;SDS011;46212;50.258;19.062;2024-02-14T11:31:16;5.73;;;3.20;;
53339;SDS011;46212;50.258;19.062;2024-02-14T11:33:42;8.45;;;3.72;;
53339;SDS011;46212;50.258;19.062;2024-02-14T11:36:11;9.98;;;3.60;;
53339;SDS011;46212;50.258;19.062;2024-02-14T11:38:40;5.57;;;3.00;;
53339;SDS011;46212;50.258;19.062;2024-02-14T11:41:05;5.10;;;2.97;;
53339;SDS011;46212;50.258;19.062;2024-02-14T11:43:31;11.33;;;3.40;;
53339;SDS011;46212;50.258;19.062;2024-02-14T11:45:57;7.27;;;3.43;;
53339;SDS011;46212;50.258;19.062;2024-02-14T11:48:23;15.00;;;3.60;;
53339;SDS011;46212;50.258;19.062;2024-02-14T11:50:48;6.57;;;3.10;;
53339;SDS011;46212;50.258;19.062;2024-02-14T11:53:16;10.85;;;2.88;;
53339;SDS011;46212;50.258;19.062;2024-02-14T11:55:43;8.23;;;4.22;;
53339;SDS011;46212;50.258;19.062;2024-02-14T11:58:11;6.57;;;2.57;;
53339;SDS011;46212;50.258;19.062;2024-02-14T12:00:38;6.43;;;3.05;;
53339;SDS011;46212;50.258;19.062;2024-02-14T12:03:12;11.23;;;4.38;;
53339;SDS011;46212;50.258;19.062;2024-02-14T12:05:41;8.73;;;3.22;;
53339;SDS011;46212;50.258;19.062;2024-02-14T12:08:09;8.30;;;4.95;;
53339;SDS011;46212;50.258;19.062;2024-02-14T12:10:35;11.87;;;6.13;;
53339;SDS011;46212;50.258;19.062;2024-02-14T12:13:09;23.42;;;15.65;;
53339;SDS011;46212;50.258;19.062;2024-02-14T12:15:40;9.10;;;3.65;;
53339;SDS011;46212;50.258;19.062;2024-02-14T12:18:07;15.68;;;5.60;;
53339;SDS011;46212;50.258;19.062;2024-02-14T12:20:34;9.20;;;4.97;;
53339;SDS011;46212;50.258;19.062;2024-02-14T12:22:59;6.37;;;3.37;;
53339;SDS011;46212;50.258;19.062;2024-02-14T12:25:25;7.07;;;4.20;;
53339;SDS011;46212;50.258;19.062;2024-02-14T12:27:51;12.23;;;5.15;;
53339;SDS011;46212;50.258;19.062;2024-02-14T12:32:46;22.33;;;6.90;;
53339;SDS011;46212;50.258;19.062;2024-02-14T12:35:23;12.75;;;4.68;;
53339;SDS011;46212;50.258;19.062;2024-02-14T12:37:48;9.40;;;3.90;;
53339;SDS011;46212;50.258;19.062;2024-02-14T12:40:14;7.93;;;4.60;;
53339;SDS011;46212;50.258;19.062;2024-02-14T12:42:39;7.13;;;4.33;;
53339;SDS011;46212;50.258;19.062;2024-02-14T12:45:05;5.80;;;3.30;;
53339;SDS011;46212;50.258;19.062;2024-02-14T12:47:32;11.13;;;4.63;;
53339;SDS011;46212;50.258;19.062;2024-02-14T12:50:00;6.90;;;3.50;;
53339;SDS011;46212;50.258;19.062;2024-02-14T12:52:26;10.77;;;5.05;;
53339;SDS011;46212;50.258;19.062;2024-02-14T12:54:51;10.97;;;5.37;;
53339;SDS011;46212;50.258;19.062;2024-02-14T12:57:17;7.95;;;4.18;;
53339;SDS011;46212;50.258;19.062;2024-02-14T12:59:43;70.18;;;44.25;;
53339;SDS011;46212;50.258;19.062;2024-02-14T13:02:08;6.33;;;4.00;;
53339;SDS011;46212;50.258;19.062;2024-02-14T13:04:34;4.77;;;3.33;;
53339;SDS011;46212;50.258;19.062;2024-02-14T13:07:00;12.13;;;4.50;;
53339;SDS011;46212;50.258;19.062;2024-02-14T13:09:25;10.07;;;4.90;;
53339;SDS011;46212;50.258;19.062;2024-02-14T13:11:51;7.33;;;4.13;;
53339;SDS011;46212;50.258;19.062;2024-02-14T13:14:17;6.38;;;3.40;;
53339;SDS011;46212;50.258;19.062;2024-02-14T13:16:42;8.63;;;3.73;;
53339;SDS011;46212;50.258;19.062;2024-02-14T13:19:08;7.83;;;3.47;;
53339;SDS011;46212;50.258;19.062;2024-02-14T13:21:33;13.70;;;4.80;;
53339;SDS011;46212;50.258;19.062;2024-02-14T13:23:59;4.67;;;3.00;;
53339;SDS011;46212;50.258;19.062;2024-02-14T13:26:24;6.67;;;3.33;;
53339;SDS011;46212;50.258;19.062;2024-02-14T13:28:50;12.27;;;5.97;;
53339;SDS011;46212;50.258;19.062;2024-02-14T13:31:15;6.00;;;3.33;;
53339;SDS011;46212;50.258;19.062;2024-02-14T13:33:41;6.72;;;3.53;;
53339;SDS011;46212;50.258;19.062;2024-02-14T13:36:07;7.90;;;3.77;;
53339;SDS011;46212;50.258;19.062;2024-02-14T13:38:33;7.93;;;3.27;;
53339;SDS011;46212;50.258;19.062;2024-02-14T13:40:58;5.53;;;3.40;;
53339;SDS011;46212;50.258;19.062;2024-02-14T13:43:24;8.23;;;3.90;;
53339;SDS011;46212;50.258;19.062;2024-02-14T13:45:50;8.67;;;4.07;;
53339;SDS011;46212;50.258;19.062;2024-02-14T13:48:16;11.18;;;5.30;;
53339;SDS011;46212;50.258;19.062;2024-02-14T13:50:41;9.37;;;4.90;;
53339;SDS011;46212;50.258;19.062;2024-02-14T13:53:07;6.47;;;4.05;;
53339;SDS011;46212;50.258;19.062;2024-02-14T13:55:33;9.93;;;4.37;;
53339;SDS011;46212;50.258;19.062;2024-02-14T13:57:58;14.40;;;4.67;;
53339;SDS011;46212;50.258;19.062;2024-02-14T14:00:24;10.70;;;4.23;;
53339;SDS011;46212;50.258;19.062;2024-02-14T14:02:49;19.63;;;6.73;;
53339;SDS011;46212;50.258;19.062;2024-02-14T14:05:15;12.33;;;7.37;;
53339;SDS011;46212;50.258;19.062;2024-02-14T14:07:41;19.00;;;10.80;;
53339;SDS011;46212;50.258;19.062;2024-02-14T14:10:07;15.23;;;8.90;;
53339;SDS011;46212;50.258;19.062;2024-02-14T14:12:34;13.27;;;6.63;;
53339;SDS011;46212;50.258;19.062;2024-02-14T14:15:00;10.03;;;4.57;;
53339;SDS011;46212;50.258;19.062;2024-02-14T14:17:26;10.90;;;4.70;;
53339;SDS011;46212;50.258;19.062;2024-02-14T14:19:52;13.18;;;5.38;;
53339;SDS011;46212;50.258;19.062;2024-02-14T14:22:18;9.98;;;5.40;;
53339;SDS011;46212;50.258;19.062;2024-02-14T14:24:44;9.20;;;3.63;;